createdAt,value
2022-12-14T00:01:20.855Z,9.17
2022-12-14T00:06:18.198Z,7.97
2022-12-14T00:08:46.970Z,8.82
2022-12-14T00:11:14.558Z,10.07
2022-12-14T00:13:42.191Z,8.30
2022-12-14T00:16:11.970Z,11.20
2022-12-14T00:18:39.200Z,10.32
2022-12-14T00:21:08.671Z,10.77
2022-12-14T00:23:39.136Z,10.90
2022-12-14T00:26:09.150Z,10.40
2022-12-14T00:28:36.277Z,8.60
2022-12-14T00:31:03.819Z,10.27
2022-12-14T00:33:30.948Z,10.65
2022-12-14T00:35:57.498Z,11.02
2022-12-14T00:38:24.381Z,9.50
2022-12-14T00:40:51.666Z,8.60
2022-12-14T00:43:18.190Z,8.48
2022-12-14T00:45:45.249Z,8.50
2022-12-14T00:48:13.005Z,8.77
2022-12-14T00:50:39.897Z,9.85
2022-12-14T00:53:06.922Z,10.07
2022-12-14T00:55:44.580Z,9.82
2022-12-14T00:58:17.991Z,7.82
2022-12-14T01:00:44.688Z,10.13
2022-12-14T01:03:12.496Z,9.35
2022-12-14T01:05:39.519Z,9.32
2022-12-14T01:08:06.917Z,10.77
2022-12-14T01:10:33.837Z,9.23
2022-12-14T01:13:00.633Z,9.57
2022-12-14T01:15:27.339Z,9.57
2022-12-14T01:17:54.063Z,9.88
2022-12-14T01:20:20.667Z,9.38
2022-12-14T01:22:47.624Z,9.55
2022-12-14T01:25:14.434Z,8.35
2022-12-14T01:27:41.045Z,9.05
2022-12-14T01:30:07.959Z,7.70
2022-12-14T01:32:34.939Z,6.90
2022-12-14T01:35:01.589Z,7.65
2022-12-14T01:37:28.953Z,6.43
2022-12-14T01:39:55.669Z,7.78
2022-12-14T01:42:22.366Z,7.05
2022-12-14T01:44:57.443Z,7.10
2022-12-14T01:47:48.628Z,6.93
2022-12-14T01:50:25.654Z,6.65
2022-12-14T01:52:57.043Z,6.30
2022-12-14T01:55:34.817Z,6.32
2022-12-14T01:58:05.728Z,7.63
2022-12-14T02:00:32.816Z,7.85
2022-12-14T02:03:09.350Z,8.95
2022-12-14T02:05:39.805Z,6.00
2022-12-14T02:08:07.582Z,7.05
2022-12-14T02:10:34.850Z,7.95
2022-12-14T02:13:15.005Z,7.15
2022-12-14T02:15:42.195Z,7.07
2022-12-14T02:18:14.377Z,7.72
2022-12-14T02:20:59.336Z,6.70
2022-12-14T02:23:44.886Z,6.30
2022-12-14T02:26:35.654Z,7.20
2022-12-14T02:29:20.266Z,7.53
2022-12-14T02:32:10.958Z,8.25
2022-12-14T02:34:52.781Z,7.45
2022-12-14T02:37:51.019Z,7.30
2022-12-14T02:40:39.823Z,9.27
2022-12-14T02:43:33.015Z,7.93
2022-12-14T02:46:15.850Z,8.38
2022-12-14T02:48:51.362Z,9.60
2022-12-14T02:51:43.964Z,9.63
2022-12-14T02:54:20.716Z,8.35
2022-12-14T02:56:59.164Z,9.00
2022-12-14T02:59:26.324Z,10.65
2022-12-14T03:01:54.132Z,10.43
2022-12-14T03:04:20.774Z,7.95
2022-12-14T03:07:29.566Z,9.63
2022-12-14T03:09:59.676Z,10.10
2022-12-14T03:12:26.430Z,10.20
2022-12-14T03:14:55.770Z,9.23
2022-12-14T03:17:26.011Z,10.23
2022-12-14T03:19:54.132Z,9.80
2022-12-14T03:22:47.128Z,10.07
2022-12-14T03:25:23.863Z,11.10
2022-12-14T03:27:56.829Z,10.32
2022-12-14T03:30:51.198Z,9.25
2022-12-14T03:33:17.109Z,10.55
2022-12-14T03:35:49.646Z,10.13
2022-12-14T03:38:36.234Z,9.38
2022-12-14T03:41:34.649Z,9.52
2022-12-14T03:44:10.533Z,10.65
2022-12-14T03:47:09.044Z,9.43
2022-12-14T03:49:57.048Z,10.60
2022-12-14T03:52:23.563Z,11.52
2022-12-14T03:55:11.435Z,12.85
2022-12-14T03:57:52.880Z,11.73
2022-12-14T04:00:23.463Z,11.75
2022-12-14T04:03:16.052Z,12.15
2022-12-14T04:05:55.991Z,12.30
2022-12-14T04:08:34.999Z,10.57
2022-12-14T04:11:24.014Z,11.30
2022-12-14T04:17:08.961Z,10.70
2022-12-14T04:19:49.211Z,10.60
2022-12-14T04:22:23.660Z,11.05
2022-12-14T04:25:18.233Z,11.98
2022-12-14T04:27:50.765Z,11.27
2022-12-14T04:30:17.796Z,12.18
2022-12-14T04:32:46.717Z,11.80
2022-12-14T04:35:40.964Z,12.80
2022-12-14T04:38:16.407Z,11.95
2022-12-14T04:40:53.682Z,13.00
2022-12-14T04:43:23.843Z,12.93
2022-12-14T04:46:15.602Z,13.35
2022-12-14T04:48:45.465Z,12.88
2022-12-14T04:51:18.150Z,12.35
2022-12-14T04:53:50.072Z,12.45
2022-12-14T04:56:26.695Z,11.85
2022-12-14T04:58:54.414Z,10.85
2022-12-14T05:01:52.206Z,12.48
2022-12-14T05:04:30.917Z,11.60
2022-12-14T05:06:57.672Z,11.65
2022-12-14T05:09:29.314Z,12.90
2022-12-14T05:12:07.866Z,9.73
2022-12-14T05:14:41.374Z,11.93
2022-12-14T05:17:09.650Z,13.15
2022-12-14T05:19:37.568Z,13.25
2022-12-14T05:22:08.315Z,14.55
2022-12-14T05:24:34.973Z,14.73
2022-12-14T05:27:01.765Z,15.65
2022-12-14T05:29:28.446Z,16.55
2022-12-14T05:31:55.074Z,11.77
2022-12-14T05:34:21.920Z,15.88
2022-12-14T05:36:48.721Z,16.25
2022-12-14T05:39:15.988Z,13.93
2022-12-14T05:41:42.742Z,13.75
2022-12-14T05:44:09.780Z,13.30
2022-12-14T05:46:36.451Z,13.75
2022-12-14T05:49:03.329Z,13.65
2022-12-14T05:51:29.972Z,13.52
2022-12-14T05:53:58.571Z,14.18
2022-12-14T05:56:25.175Z,16.30
2022-12-14T05:58:52.038Z,14.68
2022-12-14T06:01:19.608Z,14.50
2022-12-14T06:03:46.709Z,14.23
2022-12-14T06:06:14.720Z,14.05
2022-12-14T06:08:45.709Z,15.85
2022-12-14T06:11:15.013Z,13.88
2022-12-14T06:13:42.584Z,12.38
2022-12-14T06:16:12.076Z,12.48
2022-12-14T06:18:50.017Z,13.13
2022-12-14T06:21:18.497Z,13.05
2022-12-14T06:23:45.838Z,11.90
2022-12-14T06:26:13.541Z,13.07
2022-12-14T06:28:40.647Z,15.00
2022-12-14T06:31:13.794Z,17.25
2022-12-14T06:33:40.570Z,16.92
2022-12-14T06:36:07.384Z,16.55
2022-12-14T06:38:35.514Z,18.33
2022-12-14T06:41:08.328Z,18.88
2022-12-14T06:43:34.955Z,18.83
2022-12-14T06:46:01.541Z,16.20
2022-12-14T06:48:28.227Z,17.00
2022-12-14T06:51:00.911Z,16.95
2022-12-14T06:53:27.837Z,16.38
2022-12-14T06:55:54.638Z,19.85
2022-12-14T06:58:21.311Z,18.88
2022-12-14T07:00:47.853Z,17.77
2022-12-14T07:03:14.423Z,18.33
2022-12-14T07:05:44.374Z,19.70
2022-12-14T07:08:15.458Z,20.25
2022-12-14T07:10:42.049Z,18.75
2022-12-14T07:13:08.585Z,19.30
2022-12-14T07:15:35.180Z,19.85
2022-12-14T07:18:01.742Z,21.20
2022-12-14T07:20:28.637Z,19.42
2022-12-14T07:22:55.295Z,15.15
2022-12-14T07:25:21.885Z,18.98
2022-12-14T07:27:48.458Z,20.10
2022-12-14T07:30:15.157Z,18.60
2022-12-14T07:32:41.732Z,20.13
2022-12-14T07:35:14.725Z,21.13
2022-12-14T07:37:43.060Z,18.08
2022-12-14T07:40:15.632Z,19.17
2022-12-14T07:42:42.148Z,18.70
2022-12-14T07:45:09.062Z,21.30
2022-12-14T07:47:35.628Z,21.67
2022-12-14T07:50:02.196Z,21.02
2022-12-14T07:52:31.655Z,18.27
2022-12-14T07:55:02.415Z,20.58
2022-12-14T07:57:28.939Z,19.27
2022-12-14T07:59:57.514Z,21.05
2022-12-14T08:02:24.425Z,18.27
2022-12-14T08:04:51.398Z,18.60
2022-12-14T08:07:18.889Z,20.83
2022-12-14T08:09:45.434Z,20.65
2022-12-14T08:12:11.982Z,19.27
2022-12-14T08:14:38.558Z,18.85
2022-12-14T08:17:05.178Z,19.30
2022-12-14T08:19:31.777Z,18.85
2022-12-14T08:21:58.306Z,18.35
2022-12-14T08:24:24.835Z,18.77
2022-12-14T08:26:51.418Z,16.38
2022-12-14T08:29:19.023Z,18.83
2022-12-14T08:31:45.974Z,18.42
2022-12-14T08:34:12.890Z,16.83
2022-12-14T08:36:39.541Z,17.38
2022-12-14T08:39:09.682Z,17.70
2022-12-14T08:41:36.406Z,17.60
2022-12-14T08:44:04.751Z,17.35
2022-12-14T08:46:33.660Z,19.47
2022-12-14T08:49:00.673Z,18.60
2022-12-14T08:51:28.473Z,18.77
2022-12-14T08:53:56.846Z,15.88
2022-12-14T08:56:26.282Z,18.27
2022-12-14T08:58:53.178Z,17.17
2022-12-14T09:01:32.171Z,17.98
2022-12-14T09:04:05.494Z,15.98
2022-12-14T09:06:37.060Z,15.98
2022-12-14T09:09:09.153Z,16.13
2022-12-14T09:11:40.138Z,18.60
2022-12-14T09:14:07.254Z,17.55
2022-12-14T09:16:34.073Z,18.30
2022-12-14T09:19:00.767Z,18.98
2022-12-14T09:21:27.401Z,18.10
2022-12-14T09:23:59.264Z,17.95
2022-12-14T09:26:27.095Z,18.88
2022-12-14T09:28:55.644Z,21.13
2022-12-14T09:31:25.228Z,20.92
2022-12-14T09:33:52.231Z,20.17
2022-12-14T09:36:21.664Z,17.70
2022-12-14T09:38:51.891Z,19.92
2022-12-14T09:41:21.742Z,20.80
2022-12-14T09:43:55.888Z,19.55
2022-12-14T09:46:44.255Z,19.00
2022-12-14T09:49:26.498Z,17.30
2022-12-14T09:51:55.857Z,20.30
2022-12-14T09:54:33.218Z,17.30
2022-12-14T09:57:15.113Z,19.63
2022-12-14T09:59:41.787Z,18.98
2022-12-14T10:02:31.983Z,18.63
2022-12-14T10:05:14.508Z,17.98
2022-12-14T10:08:00.476Z,18.48
2022-12-14T10:10:33.154Z,16.02
2022-12-14T10:13:30.355Z,17.98
2022-12-14T10:16:08.688Z,19.33
2022-12-14T10:18:59.709Z,17.95
2022-12-14T10:21:25.447Z,17.08
2022-12-14T10:24:00.425Z,19.75
2022-12-14T10:26:41.247Z,21.38
2022-12-14T10:29:19.168Z,16.95
2022-12-14T10:32:25.742Z,19.35
2022-12-14T10:34:52.406Z,16.77
2022-12-14T10:37:37.490Z,18.38
2022-12-14T10:40:29.257Z,15.23
2022-12-14T10:43:21.284Z,16.42
2022-12-14T10:45:54.070Z,15.50
2022-12-14T10:48:46.421Z,15.88
2022-12-14T10:51:17.152Z,14.85
2022-12-14T10:53:50.183Z,13.65
2022-12-14T10:56:22.205Z,14.82
2022-12-14T10:59:32.211Z,16.20
2022-12-14T11:02:16.873Z,16.60
2022-12-14T11:04:55.711Z,15.70
2022-12-14T11:07:49.775Z,14.85
2022-12-14T11:10:27.317Z,14.85
2022-12-14T11:13:16.350Z,14.15
2022-12-14T11:18:16.376Z,14.02
2022-12-14T11:20:57.931Z,15.10
2022-12-14T11:23:35.601Z,12.93
2022-12-14T11:26:06.480Z,11.35
2022-12-14T11:28:39.479Z,11.00
2022-12-14T11:31:11.012Z,12.68
2022-12-14T11:33:50.808Z,12.15
2022-12-14T11:36:38.882Z,16.15
2022-12-14T11:39:14.511Z,9.80
2022-12-14T11:41:43.819Z,10.02
2022-12-14T11:44:19.133Z,10.02
2022-12-14T11:46:58.073Z,10.77
2022-12-14T11:52:20.185Z,11.55
2022-12-14T11:54:52.678Z,11.45
2022-12-14T11:57:25.872Z,11.43
2022-12-14T12:00:02.367Z,10.90
2022-12-14T12:02:29.104Z,12.40
2022-12-14T12:05:18.769Z,11.35
2022-12-14T12:07:53.341Z,11.73
2022-12-14T12:43:56.939Z,10.65
2022-12-14T12:46:29.929Z,12.73
2022-12-14T12:49:07.261Z,12.48
2022-12-14T12:51:46.959Z,13.15
2022-12-14T12:54:31.157Z,14.80
2022-12-14T12:57:00.352Z,14.43
2022-12-14T12:59:36.430Z,13.75
2022-12-14T13:02:34.561Z,14.43
2022-12-14T13:05:44.665Z,11.63
2022-12-14T13:08:07.610Z,12.75
2022-12-14T13:10:50.467Z,13.10
2022-12-14T13:13:26.848Z,11.32
2022-12-14T13:15:57.880Z,10.30
2022-12-14T13:18:57.899Z,11.20
2022-12-14T13:21:35.436Z,10.50
2022-12-14T13:24:03.815Z,15.38
2022-12-14T13:26:57.057Z,9.93
2022-12-14T13:29:55.185Z,11.75
2022-12-14T13:35:26.072Z,12.07
2022-12-14T13:38:20.908Z,12.63
2022-12-14T13:40:53.622Z,14.80
2022-12-14T13:43:20.230Z,13.77
2022-12-14T13:45:49.709Z,15.90
2022-12-14T13:48:26.499Z,14.40
2022-12-14T13:51:01.804Z,12.40
2022-12-14T13:53:37.732Z,13.93
2022-12-14T13:56:05.145Z,14.52
2022-12-14T13:58:32.047Z,14.55
2022-12-14T14:01:07.566Z,13.10
2022-12-14T14:03:34.248Z,12.43
2022-12-14T14:06:16.167Z,12.57
2022-12-14T14:08:44.488Z,12.55
2022-12-14T14:11:39.171Z,13.73
2022-12-14T14:14:12.431Z,13.35
2022-12-14T14:16:44.558Z,12.93
2022-12-14T14:19:11.359Z,14.00
2022-12-14T14:22:23.392Z,14.75
2022-12-14T14:25:02.835Z,13.90
2022-12-14T14:27:50.937Z,13.18
2022-12-14T14:30:33.234Z,12.05
2022-12-14T14:33:20.418Z,11.95
2022-12-14T14:35:49.699Z,11.18
2022-12-14T14:38:32.071Z,9.43
2022-12-14T14:41:18.866Z,13.13
2022-12-14T14:43:55.858Z,12.57
2022-12-14T14:46:45.039Z,12.20
2022-12-14T14:49:34.036Z,12.38
2022-12-14T14:55:21.272Z,10.75
2022-12-14T14:57:52.404Z,13.43
2022-12-14T15:00:19.145Z,12.73
2022-12-14T15:02:46.380Z,14.48
2022-12-14T15:08:33.729Z,13.98
2022-12-14T15:11:04.964Z,13.27
2022-12-14T15:13:51.433Z,13.40
2022-12-14T15:16:24.077Z,14.45
2022-12-14T15:18:50.750Z,13.13
2022-12-14T15:21:18.889Z,15.95
2022-12-14T15:23:49.609Z,15.60
2022-12-14T15:26:26.915Z,12.40
2022-12-14T15:28:59.030Z,15.00
2022-12-14T15:31:32.221Z,15.50
2022-12-14T15:34:00.368Z,13.77
2022-12-14T15:36:31.502Z,15.00
2022-12-14T15:38:59.175Z,15.75
2022-12-14T15:41:33.095Z,17.77
2022-12-14T15:44:00.944Z,14.90
2022-12-14T15:46:33.499Z,14.93
2022-12-14T15:49:03.651Z,15.40
2022-12-14T15:51:37.607Z,17.33
2022-12-14T15:54:06.955Z,15.57
2022-12-14T15:56:39.548Z,16.52
2022-12-14T15:59:33.016Z,15.77
2022-12-14T16:02:15.437Z,15.32
2022-12-14T16:04:43.330Z,16.55
2022-12-14T16:07:21.040Z,14.85
2022-12-14T16:09:52.278Z,16.75
2022-12-14T16:12:42.579Z,15.88
2022-12-14T16:15:24.034Z,14.98
2022-12-14T16:17:59.269Z,16.88
2022-12-14T16:20:37.075Z,17.38
2022-12-14T16:23:15.769Z,16.48
2022-12-14T16:26:00.709Z,16.30
2022-12-14T16:28:36.050Z,16.63
2022-12-14T16:31:11.475Z,17.35
2022-12-14T16:33:40.891Z,17.50
2022-12-14T16:36:13.363Z,19.17
2022-12-14T16:39:01.755Z,18.90
2022-12-14T16:42:02.158Z,16.77
2022-12-14T16:44:31.770Z,16.63
2022-12-14T16:47:01.470Z,19.85
2022-12-14T16:49:28.083Z,19.33
2022-12-14T16:52:07.786Z,17.27
2022-12-14T16:54:35.569Z,16.63
2022-12-14T16:57:25.281Z,18.00
2022-12-14T17:00:00.974Z,18.17
2022-12-14T17:02:39.034Z,15.65
2022-12-14T17:05:14.121Z,17.77
2022-12-14T17:07:40.939Z,17.30
2022-12-14T17:10:15.742Z,21.08
2022-12-14T17:12:44.047Z,19.13
2022-12-14T17:15:18.864Z,20.87
2022-12-14T17:17:49.430Z,18.58
2022-12-14T17:20:29.236Z,17.58
2022-12-14T17:22:58.759Z,19.35
2022-12-14T17:25:30.617Z,18.38
2022-12-14T17:27:57.695Z,16.17
2022-12-14T17:30:24.793Z,15.88
2022-12-14T17:32:53.361Z,14.85
2022-12-14T17:35:26.684Z,17.00
2022-12-14T17:37:53.273Z,17.02
2022-12-14T17:40:19.878Z,15.30
2022-12-14T17:42:52.676Z,16.23
2022-12-14T17:45:25.261Z,18.67
2022-12-14T17:47:52.098Z,19.38
2022-12-14T17:50:19.303Z,16.63
2022-12-14T17:52:46.206Z,18.35
2022-12-14T17:55:18.171Z,17.45
2022-12-14T17:57:45.420Z,15.85
2022-12-14T18:00:38.820Z,18.35
2022-12-14T18:03:06.022Z,17.25
2022-12-14T18:05:35.212Z,16.52
2022-12-14T18:08:01.858Z,17.90
2022-12-14T18:10:28.808Z,22.25
2022-12-14T18:12:56.056Z,20.80
2022-12-14T18:15:27.900Z,20.65
2022-12-14T18:17:54.828Z,24.00
2022-12-14T18:20:23.477Z,19.90
2022-12-14T18:22:51.082Z,20.40
2022-12-14T18:25:30.232Z,20.00
2022-12-14T18:27:57.338Z,19.70
2022-12-14T18:30:24.001Z,19.17
2022-12-14T18:32:50.667Z,19.85
2022-12-14T18:35:22.939Z,19.77
2022-12-14T18:37:50.803Z,18.08
2022-12-14T18:40:20.548Z,18.90
2022-12-14T18:42:47.354Z,21.52
2022-12-14T18:45:25.486Z,18.85
2022-12-14T18:47:59.213Z,17.90
2022-12-14T18:50:25.842Z,18.90
2022-12-14T18:52:52.748Z,21.20
2022-12-14T18:55:28.170Z,22.42
2022-12-14T18:57:57.666Z,19.27
2022-12-14T19:00:29.814Z,19.85
2022-12-14T19:02:57.806Z,18.27
2022-12-14T19:05:26.398Z,18.75
2022-12-14T19:07:53.882Z,18.77
2022-12-14T19:10:23.389Z,19.13
2022-12-14T19:12:50.949Z,18.85
2022-12-14T19:15:21.454Z,18.13
2022-12-14T19:17:48.250Z,16.35
2022-12-14T19:20:16.644Z,14.13
2022-12-14T19:22:44.460Z,15.93
2022-12-14T19:25:12.334Z,14.82
2022-12-14T19:28:15.597Z,13.85
2022-12-14T19:30:27.249Z,15.70
2022-12-14T19:32:56.369Z,13.98
2022-12-14T19:37:50.421Z,11.75
2022-12-14T19:40:18.289Z,13.45
2022-12-14T19:42:47.058Z,11.35
2022-12-14T19:45:14.656Z,12.45
2022-12-14T19:47:42.679Z,10.48
2022-12-14T19:50:11.028Z,11.98
2022-12-14T19:52:37.639Z,14.98
2022-12-14T19:55:04.641Z,13.93
2022-12-14T19:57:31.280Z,13.45
2022-12-14T19:59:59.997Z,11.48
2022-12-14T20:02:27.282Z,12.73
2022-12-14T20:04:54.098Z,11.13
2022-12-14T20:07:20.775Z,12.77
2022-12-14T20:09:47.324Z,12.25
2022-12-14T20:12:14.023Z,10.43
2022-12-14T20:14:41.199Z,11.10
2022-12-14T20:17:08.855Z,14.60
2022-12-14T20:19:36.533Z,11.77
2022-12-14T20:22:03.150Z,14.05
2022-12-14T20:24:29.830Z,12.57
2022-12-14T20:26:57.082Z,13.45
2022-12-14T20:29:24.052Z,16.08
2022-12-14T20:31:50.987Z,12.15
2022-12-14T20:34:17.612Z,13.35
2022-12-14T20:36:44.189Z,13.18
2022-12-14T20:39:10.875Z,15.88
2022-12-14T20:41:37.632Z,14.48
2022-12-14T20:44:08.618Z,14.63
2022-12-14T20:46:38.118Z,16.77
2022-12-14T20:49:11.026Z,16.38
2022-12-14T20:51:39.005Z,17.15
2022-12-14T20:54:08.097Z,14.65
2022-12-14T20:59:02.084Z,13.13
2022-12-14T21:01:28.923Z,14.65
2022-12-14T21:03:57.786Z,12.85
2022-12-14T21:06:24.551Z,14.80
2022-12-14T21:09:09.638Z,12.57
2022-12-14T21:12:01.002Z,13.07
2022-12-14T21:14:34.229Z,13.07
2022-12-14T21:17:02.528Z,12.85
2022-12-14T21:19:29.701Z,13.90
2022-12-14T21:21:56.366Z,12.48
2022-12-14T21:24:53.066Z,10.63
2022-12-14T21:27:38.825Z,13.00
2022-12-14T21:30:10.835Z,12.82
2022-12-14T21:32:38.452Z,15.15
2022-12-14T21:35:05.770Z,12.25
2022-12-14T21:37:32.302Z,12.35
2022-12-14T21:39:59.122Z,11.18
2022-12-14T21:42:26.236Z,10.85
2022-12-14T21:44:54.310Z,29.35
2022-12-14T21:47:24.884Z,14.50
2022-12-14T21:49:52.161Z,10.52
2022-12-14T21:52:22.863Z,10.48
2022-12-14T21:54:49.531Z,8.95
2022-12-14T21:57:36.773Z,8.93
2022-12-14T22:00:06.311Z,10.05
2022-12-14T22:02:33.192Z,10.52
2022-12-14T22:05:00.018Z,9.50
2022-12-14T22:07:31.301Z,7.65
2022-12-14T22:09:58.042Z,9.60
2022-12-14T22:12:24.712Z,10.43
2022-12-14T22:14:51.260Z,8.73
2022-12-14T22:17:17.860Z,8.90
2022-12-14T22:19:44.519Z,8.90
2022-12-14T22:22:17.183Z,9.82
2022-12-14T22:24:45.025Z,9.90
2022-12-14T22:27:13.085Z,10.32
2022-12-14T22:29:39.889Z,10.65
2022-12-14T22:32:07.618Z,10.90
2022-12-14T22:34:34.455Z,10.23
2022-12-14T22:37:01.712Z,8.32
2022-12-14T22:39:28.562Z,8.80
2022-12-14T22:41:55.210Z,7.47
2022-12-14T22:44:21.911Z,9.05
2022-12-14T22:46:48.507Z,9.18
2022-12-14T22:49:19.322Z,8.93
2022-12-14T22:51:46.285Z,10.68
2022-12-14T22:54:20.927Z,9.30
2022-12-14T22:56:54.608Z,9.63
2022-12-14T22:59:30.414Z,10.27
2022-12-14T23:01:58.597Z,10.20
2022-12-14T23:04:25.566Z,10.03
2022-12-14T23:06:53.036Z,8.85
2022-12-14T23:09:38.309Z,10.85
2022-12-14T23:12:23.814Z,9.88
2022-12-14T23:15:09.217Z,9.13
2022-12-14T23:17:54.604Z,9.63
2022-12-14T23:20:39.997Z,9.75
2022-12-14T23:23:26.582Z,8.77
2022-12-14T23:26:12.240Z,9.10
2022-12-14T23:28:58.113Z,12.02
2022-12-14T23:31:43.383Z,9.32
2022-12-14T23:34:28.724Z,8.70
2022-12-14T23:37:19.811Z,9.40
2022-12-14T23:40:06.669Z,10.32
2022-12-14T23:42:51.943Z,11.15
2022-12-14T23:45:37.428Z,9.48
2022-12-14T23:48:22.669Z,8.82
2022-12-14T23:51:07.977Z,7.90
2022-12-14T23:53:53.353Z,7.93
2022-12-14T23:56:38.833Z,7.55
2022-12-14T23:59:29.923Z,7.43
